createdAt,value
2018-05-04T00:01:30.108Z,64.76
2018-05-04T00:03:57.793Z,64.15
2018-05-04T00:06:25.505Z,64.51
2018-05-04T00:08:53.187Z,64.44
2018-05-04T00:11:20.843Z,64.63
2018-05-04T00:13:48.474Z,64.66
2018-05-04T00:16:16.173Z,64.56
2018-05-04T00:18:43.923Z,65.25
2018-05-04T00:21:11.622Z,65.57
2018-05-04T00:23:39.246Z,65.68
2018-05-04T00:26:06.913Z,66.35
2018-05-04T00:28:34.553Z,66.41
2018-05-04T00:31:02.162Z,65.74
2018-05-04T00:33:29.771Z,66.18
2018-05-04T00:35:57.357Z,65.87
2018-05-04T00:38:24.941Z,66.10
2018-05-04T00:40:52.561Z,65.51
2018-05-04T00:43:20.184Z,65.31
2018-05-04T00:45:47.801Z,65.06
2018-05-04T00:48:15.410Z,65.28
2018-05-04T00:50:43.037Z,65.47
2018-05-04T00:53:10.642Z,65.81
2018-05-04T00:55:38.236Z,66.24
2018-05-04T00:58:05.853Z,66.51
2018-05-04T01:00:33.459Z,66.36
2018-05-04T01:03:01.049Z,66.87
2018-05-04T01:05:28.663Z,67.16
2018-05-04T01:07:56.253Z,67.40
2018-05-04T01:10:23.853Z,67.37
2018-05-04T01:12:51.492Z,67.72
2018-05-04T01:15:19.122Z,67.32
2018-05-04T01:17:46.776Z,67.82
2018-05-04T01:20:14.490Z,67.87
2018-05-04T01:22:42.137Z,68.18
2018-05-04T01:25:09.785Z,68.61
2018-05-04T01:27:37.497Z,68.91
2018-05-04T01:30:05.166Z,68.84
2018-05-04T01:32:32.833Z,68.79
2018-05-04T01:35:00.537Z,67.91
2018-05-04T01:37:28.261Z,67.99
2018-05-04T01:39:55.910Z,67.95
2018-05-04T01:42:23.557Z,68.19
2018-05-04T01:44:51.246Z,68.14
2018-05-04T01:47:18.969Z,68.03
2018-05-04T01:49:46.604Z,67.92
2018-05-04T01:52:14.222Z,67.53
2018-05-04T01:54:41.932Z,67.77
2018-05-04T01:57:09.637Z,67.52
2018-05-04T01:59:37.265Z,67.66
2018-05-04T02:02:04.908Z,66.89
2018-05-04T02:04:32.647Z,67.28
2018-05-04T02:07:00.273Z,67.53
2018-05-04T02:09:27.895Z,67.65
2018-05-04T02:11:55.578Z,67.05
2018-05-04T02:14:23.216Z,66.70
2018-05-04T02:16:50.869Z,66.57
2018-05-04T02:19:18.546Z,66.10
2018-05-04T02:21:46.220Z,66.54
2018-05-04T02:24:13.938Z,66.80
2018-05-04T02:26:41.554Z,67.04
2018-05-04T02:29:09.210Z,66.40
2018-05-04T02:31:36.858Z,66.16
2018-05-04T02:34:04.481Z,66.32
2018-05-04T02:36:32.098Z,66.42
2018-05-04T02:38:59.802Z,66.09
2018-05-04T02:41:27.423Z,66.45
2018-05-04T02:43:55.106Z,66.75
2018-05-04T02:46:22.750Z,67.11
2018-05-04T02:48:50.405Z,67.04
2018-05-04T02:51:18.090Z,67.22
2018-05-04T02:53:45.758Z,66.75
2018-05-04T02:56:13.383Z,67.31
2018-05-04T02:58:41.046Z,67.26
2018-05-04T03:01:08.721Z,67.54
2018-05-04T03:03:36.498Z,67.50
2018-05-04T03:06:04.181Z,67.48
2018-05-04T03:08:31.831Z,67.50
2018-05-04T03:10:59.549Z,68.02
2018-05-04T03:13:27.241Z,67.92
2018-05-04T03:15:54.894Z,68.13
2018-05-04T03:18:25.119Z,67.88
2018-05-04T03:20:52.882Z,68.12
2018-05-04T03:23:20.644Z,68.02
2018-05-04T03:25:48.330Z,67.67
2018-05-04T03:28:16.002Z,67.81
2018-05-04T03:30:43.742Z,67.31
2018-05-04T03:33:11.414Z,68.17
2018-05-04T03:35:39.101Z,68.24
2018-05-04T03:38:06.781Z,68.09
2018-05-04T03:40:34.454Z,67.52
2018-05-04T03:43:02.090Z,68.23
2018-05-04T03:45:29.723Z,69.37
2018-05-04T03:47:57.369Z,69.19
2018-05-04T03:50:24.985Z,69.83
2018-05-04T03:52:52.610Z,69.81
2018-05-04T03:55:20.290Z,69.23
2018-05-04T03:57:59.569Z,69.35
2018-05-04T04:00:38.870Z,68.61
2018-05-04T04:06:05.937Z,68.64
2018-05-04T04:08:33.574Z,68.55
2018-05-04T04:11:01.158Z,68.62
2018-05-04T04:13:28.765Z,68.54
2018-05-04T04:15:56.423Z,68.88
2018-05-04T04:18:24.013Z,68.08
2018-05-04T04:20:51.606Z,68.29
2018-05-04T04:23:19.249Z,67.95
2018-05-04T04:25:46.853Z,68.25
2018-05-04T04:28:14.571Z,68.03
2018-05-04T04:30:42.137Z,68.25
2018-05-04T04:33:09.728Z,68.22
2018-05-04T04:35:37.388Z,68.44
2018-05-04T04:38:04.990Z,67.38
2018-05-04T04:40:32.589Z,67.24
2018-05-04T04:43:00.181Z,67.61
2018-05-04T04:45:27.882Z,67.26
2018-05-04T04:47:55.589Z,67.11
2018-05-04T04:50:23.209Z,67.96
2018-05-04T04:52:50.850Z,67.33
2018-05-04T04:55:18.543Z,67.27
2018-05-04T04:57:46.177Z,66.22
2018-05-04T05:00:13.790Z,65.35
2018-05-04T05:02:41.474Z,65.56
2018-05-04T05:05:09.086Z,64.96
2018-05-04T05:07:36.710Z,64.75
2018-05-04T05:10:04.393Z,63.86
2018-05-04T05:12:32.011Z,63.00
2018-05-04T05:14:59.642Z,62.85
2018-05-04T05:17:27.234Z,62.06
2018-05-04T05:19:54.838Z,62.14
2018-05-04T05:22:22.558Z,61.48
2018-05-04T05:24:50.221Z,61.15
2018-05-04T05:27:17.832Z,59.92
2018-05-04T05:29:45.521Z,59.29
2018-05-04T05:32:13.189Z,59.08
2018-05-04T05:34:40.845Z,58.82
2018-05-04T05:37:08.509Z,58.70
2018-05-04T05:39:36.242Z,58.46
2018-05-04T05:42:03.841Z,58.50
2018-05-04T05:44:31.479Z,56.80
2018-05-04T05:46:59.089Z,57.07
2018-05-04T05:49:26.694Z,56.08
2018-05-04T05:51:54.449Z,55.54
2018-05-04T05:54:22.002Z,55.10
2018-05-04T05:56:49.613Z,54.56
2018-05-04T05:59:17.240Z,53.69
2018-05-04T06:01:44.829Z,54.48
2018-05-04T06:04:12.417Z,55.32
2018-05-04T06:06:40.097Z,55.40
2018-05-04T06:09:07.726Z,55.73
2018-05-04T06:11:35.871Z,55.73
2018-05-04T06:14:03.561Z,55.75
2018-05-04T06:16:31.222Z,56.07
2018-05-04T06:18:58.848Z,56.15
2018-05-04T06:21:26.487Z,56.00
2018-05-04T06:23:54.077Z,55.68
2018-05-04T06:26:21.681Z,55.19
2018-05-04T06:28:49.323Z,55.75
2018-05-04T06:31:16.909Z,55.53
2018-05-04T06:33:44.581Z,55.47
2018-05-04T06:36:12.241Z,54.72
2018-05-04T06:38:39.921Z,55.01
2018-05-04T06:41:07.519Z,55.53
2018-05-04T06:43:35.157Z,55.70
2018-05-04T06:46:02.832Z,55.95
2018-05-04T06:48:30.453Z,56.47
2018-05-04T06:50:58.221Z,56.85
2018-05-04T06:53:25.939Z,55.61
2018-05-04T06:55:53.606Z,54.87
2018-05-04T06:58:21.240Z,54.72
2018-05-04T07:00:48.858Z,54.41
2018-05-04T07:03:16.493Z,54.37
2018-05-04T07:05:44.189Z,52.93
2018-05-04T07:08:12.520Z,53.15
2018-05-04T07:10:40.189Z,52.38
2018-05-04T07:13:07.869Z,52.22
2018-05-04T07:15:35.512Z,51.28
2018-05-04T07:18:03.221Z,51.26
2018-05-04T07:20:30.896Z,52.33
2018-05-04T07:22:58.593Z,52.24
2018-05-04T07:25:26.251Z,49.47
2018-05-04T07:27:53.942Z,49.63
2018-05-04T07:30:21.712Z,47.77
2018-05-04T07:32:49.367Z,47.59
2018-05-04T07:35:17.094Z,46.92
2018-05-04T07:37:44.793Z,46.07
2018-05-04T07:40:12.426Z,46.34
2018-05-04T07:42:40.066Z,46.16
2018-05-04T07:45:07.718Z,46.01
2018-05-04T07:47:35.445Z,45.98
2018-05-04T07:50:03.113Z,45.85
2018-05-04T07:52:30.721Z,44.93
2018-05-04T07:54:58.353Z,44.03
2018-05-04T07:57:25.973Z,43.40
2018-05-04T07:59:53.601Z,41.74
2018-05-04T08:02:21.189Z,43.12
2018-05-04T08:04:48.781Z,42.28
2018-05-04T08:07:19.378Z,39.76
2018-05-04T08:09:47.014Z,39.82
2018-05-04T08:12:14.601Z,40.17
2018-05-04T08:14:42.189Z,38.67
2018-05-04T08:17:09.821Z,38.04
2018-05-04T08:19:37.409Z,37.95
2018-05-04T08:22:05.032Z,38.65
2018-05-04T08:24:32.678Z,38.53
2018-05-04T08:27:00.269Z,37.47
2018-05-04T08:29:27.873Z,37.02
2018-05-04T08:31:55.541Z,36.67
2018-05-04T08:34:23.181Z,35.84
2018-05-04T08:36:50.806Z,34.13
2018-05-04T08:39:18.434Z,33.75
2018-05-04T08:41:46.107Z,32.19
2018-05-04T08:44:13.850Z,31.96
2018-05-04T08:46:41.521Z,31.09
2018-05-04T08:49:09.208Z,31.03
2018-05-04T08:51:36.804Z,30.72
2018-05-04T08:54:04.474Z,29.21
2018-05-04T08:56:32.154Z,28.24
2018-05-04T08:58:59.783Z,28.22
2018-05-04T09:01:27.450Z,30.27
2018-05-04T09:03:55.118Z,31.91
2018-05-04T09:06:22.794Z,32.73
2018-05-04T09:08:50.431Z,32.82
2018-05-04T09:11:18.074Z,32.32
2018-05-04T09:13:45.855Z,30.18
2018-05-04T09:16:13.490Z,30.26
2018-05-04T09:18:41.129Z,28.65
2018-05-04T09:21:08.794Z,26.30
2018-05-04T09:23:36.458Z,28.80
2018-05-04T09:26:05.342Z,27.07
2018-05-04T09:28:33.007Z,29.51
2018-05-04T09:31:00.746Z,31.08
2018-05-04T09:33:28.302Z,29.00
2018-05-04T09:35:56.027Z,28.40
2018-05-04T09:38:23.738Z,29.06
2018-05-04T09:40:51.478Z,29.09
2018-05-04T09:43:19.146Z,29.20
2018-05-04T09:45:46.810Z,27.24
2018-05-04T09:48:14.542Z,28.07
2018-05-04T09:50:42.186Z,26.30
2018-05-04T09:53:09.855Z,26.47
2018-05-04T09:55:37.554Z,27.17
2018-05-04T09:58:05.195Z,26.31
2018-05-04T10:00:32.814Z,24.57
2018-05-04T10:03:00.551Z,24.79
2018-05-04T10:05:28.197Z,24.57
2018-05-04T10:07:55.781Z,25.37
2018-05-04T10:10:23.370Z,27.30
2018-05-04T10:12:51.031Z,27.92
2018-05-04T10:15:18.710Z,28.75
2018-05-04T10:17:46.346Z,29.25
2018-05-04T10:20:13.974Z,30.32
2018-05-04T10:22:41.582Z,31.20
2018-05-04T10:25:09.253Z,29.79
2018-05-04T10:27:36.905Z,31.73
2018-05-04T10:30:04.598Z,31.83
2018-05-04T10:32:32.334Z,30.24
2018-05-04T10:34:59.950Z,29.11
2018-05-04T10:37:27.541Z,28.71
2018-05-04T10:39:55.243Z,27.68
2018-05-04T10:42:22.925Z,27.73
2018-05-04T10:44:50.574Z,27.10
2018-05-04T10:47:18.218Z,26.25
2018-05-04T10:49:45.841Z,27.14
2018-05-04T10:52:13.594Z,27.50
2018-05-04T10:54:41.282Z,27.95
2018-05-04T10:57:09.079Z,26.35
2018-05-04T10:59:36.780Z,26.07
2018-05-04T11:02:04.476Z,26.42
2018-05-04T11:04:32.109Z,28.40
2018-05-04T11:06:59.823Z,29.24
2018-05-04T11:09:27.470Z,29.66
2018-05-04T11:11:55.295Z,28.35
2018-05-04T11:14:22.982Z,27.83
2018-05-04T11:16:50.623Z,27.41
2018-05-04T11:19:18.294Z,26.49
2018-05-04T11:21:45.954Z,26.10
2018-05-04T11:24:13.626Z,26.27
2018-05-04T11:26:41.287Z,26.45
2018-05-04T11:29:08.946Z,26.62
2018-05-04T11:31:36.573Z,26.86
2018-05-04T11:34:04.181Z,25.34
2018-05-04T11:36:31.817Z,25.07
2018-05-04T11:38:59.453Z,26.21
2018-05-04T11:41:27.154Z,25.37
2018-05-04T11:43:54.954Z,25.40
2018-05-04T11:46:22.678Z,24.56
2018-05-04T11:48:50.300Z,25.28
2018-05-04T11:51:17.951Z,24.15
2018-05-04T11:53:45.573Z,24.31
2018-05-04T11:56:13.161Z,25.55
2018-05-04T11:58:40.792Z,25.35
2018-05-04T12:01:08.413Z,26.11
2018-05-04T12:03:36.093Z,22.67
2018-05-04T12:06:03.856Z,22.81
2018-05-04T12:08:31.486Z,22.68
2018-05-04T12:10:59.125Z,21.05
2018-05-04T12:13:26.962Z,20.00
2018-05-04T12:15:54.675Z,20.48
2018-05-04T12:18:22.284Z,20.84
2018-05-04T12:20:51.462Z,19.59
2018-05-04T12:23:19.052Z,19.42
2018-05-04T12:25:46.645Z,19.17
2018-05-04T12:28:14.249Z,20.07
2018-05-04T12:30:41.856Z,19.75
2018-05-04T12:33:09.550Z,20.37
2018-05-04T12:35:37.130Z,20.67
2018-05-04T12:38:04.860Z,20.61
2018-05-04T12:40:32.471Z,20.33
2018-05-04T12:43:00.118Z,21.21
2018-05-04T12:45:27.776Z,22.58
2018-05-04T12:47:55.414Z,23.74
2018-05-04T12:50:23.126Z,25.41
2018-05-04T12:52:50.766Z,24.68
2018-05-04T12:55:18.397Z,23.57
2018-05-04T12:57:46.121Z,23.55
2018-05-04T13:00:13.821Z,23.87
2018-05-04T13:02:41.447Z,23.87
2018-05-04T13:05:09.108Z,24.29
2018-05-04T13:07:36.722Z,24.89
2018-05-04T13:10:04.362Z,24.38
2018-05-04T13:12:32.055Z,24.21
2018-05-04T13:14:59.784Z,25.59
2018-05-04T13:17:27.473Z,26.59
2018-05-04T13:19:55.213Z,27.11
2018-05-04T13:22:22.882Z,27.16
2018-05-04T13:24:50.586Z,27.04
2018-05-04T13:27:18.286Z,27.32
2018-05-04T13:29:45.895Z,26.59
2018-05-04T13:32:13.526Z,26.03
2018-05-04T13:34:41.273Z,24.73
2018-05-04T13:37:08.902Z,24.65
2018-05-04T13:39:36.538Z,24.09
2018-05-04T13:42:04.274Z,23.63
2018-05-04T13:44:31.948Z,23.66
2018-05-04T13:46:59.614Z,23.14
2018-05-04T13:49:27.310Z,24.65
2018-05-04T13:51:55.010Z,25.17
2018-05-04T13:54:22.673Z,25.45
2018-05-04T13:56:50.377Z,25.78
2018-05-04T13:59:18.057Z,25.37
2018-05-04T14:01:45.757Z,26.19
2018-05-04T14:04:13.422Z,25.47
2018-05-04T14:06:41.138Z,26.82
2018-05-04T14:09:08.803Z,26.78
2018-05-04T14:11:36.482Z,27.92
2018-05-04T14:14:04.118Z,27.45
2018-05-04T14:16:31.806Z,27.21
2018-05-04T14:18:59.498Z,27.02
2018-05-04T14:21:27.146Z,27.20
2018-05-04T14:23:54.809Z,26.77
2018-05-04T14:26:22.490Z,26.92
2018-05-04T14:28:50.183Z,27.53
2018-05-04T14:31:17.856Z,26.21
2018-05-04T14:33:45.577Z,26.45
2018-05-04T14:36:13.190Z,26.16
2018-05-04T14:38:40.824Z,27.57
2018-05-04T14:41:08.557Z,27.97
2018-05-04T14:43:36.250Z,27.18
2018-05-04T14:46:03.947Z,27.11
2018-05-04T14:48:31.615Z,27.05
2018-05-04T14:50:59.285Z,27.25
2018-05-04T14:53:26.916Z,28.70
2018-05-04T14:55:54.634Z,28.81
2018-05-04T14:58:22.250Z,27.78
2018-05-04T15:00:49.878Z,28.03
2018-05-04T15:03:17.586Z,27.62
2018-05-04T15:05:45.225Z,27.27
2018-05-04T15:08:14.541Z,26.54
2018-05-04T15:10:42.325Z,27.10
2018-05-04T15:13:09.970Z,27.25
2018-05-04T15:15:37.591Z,25.47
2018-05-04T15:18:05.358Z,25.55
2018-05-04T15:20:32.936Z,26.17
2018-05-04T15:23:00.557Z,26.69
2018-05-04T15:25:28.263Z,28.11
2018-05-04T15:27:55.894Z,28.76
2018-05-04T15:30:23.497Z,29.49
2018-05-04T15:32:51.160Z,29.97
2018-05-04T15:35:22.730Z,31.20
2018-05-04T15:37:50.357Z,31.87
2018-05-04T15:40:18.090Z,31.98
2018-05-04T15:42:45.785Z,32.61
2018-05-04T15:45:13.434Z,32.56
2018-05-04T15:47:41.138Z,33.15
2018-05-04T15:53:12.952Z,33.41
2018-05-04T15:55:40.590Z,33.48
2018-05-04T15:58:08.194Z,33.83
2018-05-04T16:00:35.821Z,33.96
2018-05-04T16:03:03.419Z,34.52
2018-05-04T16:05:31.013Z,34.56
2018-05-04T16:07:58.657Z,34.62
2018-05-04T16:10:26.241Z,34.98
2018-05-04T16:12:53.854Z,35.45
2018-05-04T16:15:21.516Z,36.25
2018-05-04T16:17:49.102Z,36.26
2018-05-04T16:20:16.700Z,36.45
2018-05-04T16:22:44.322Z,37.27
2018-05-04T16:25:11.914Z,37.18
2018-05-04T16:27:39.525Z,37.29
2018-05-04T16:30:07.189Z,37.17
2018-05-04T16:32:34.808Z,37.40
2018-05-04T16:35:02.402Z,37.60
2018-05-04T16:37:30.022Z,37.92
2018-05-04T16:39:57.605Z,38.02
2018-05-04T16:42:25.217Z,38.48
2018-05-04T16:44:52.871Z,38.67
2018-05-04T16:47:22.350Z,38.66
2018-05-04T16:49:49.939Z,38.94
2018-05-04T16:52:17.589Z,39.02
2018-05-04T16:54:45.563Z,39.51
2018-05-04T16:57:13.313Z,39.28
2018-05-04T16:59:41.010Z,39.16
2018-05-04T17:02:08.648Z,39.02
2018-05-04T17:04:36.351Z,38.50
2018-05-04T17:07:04.471Z,38.70
2018-05-04T17:09:32.161Z,39.46
2018-05-04T17:11:59.877Z,39.17
2018-05-04T17:14:27.570Z,39.38
2018-05-04T17:16:55.258Z,39.60
2018-05-04T17:19:22.997Z,40.05
2018-05-04T17:21:50.710Z,40.59
2018-05-04T17:24:18.634Z,41.37
2018-05-04T17:26:46.407Z,41.59
2018-05-04T17:29:14.077Z,41.91
2018-05-04T17:31:41.836Z,42.50
2018-05-04T17:34:09.598Z,42.86
2018-05-04T17:36:37.279Z,42.71
2018-05-04T17:39:05.646Z,43.13
2018-05-04T17:41:33.270Z,43.25
2018-05-04T17:44:01.010Z,43.36
2018-05-04T17:46:28.718Z,43.73
2018-05-04T17:48:56.427Z,43.70
2018-05-04T17:51:24.126Z,43.95
2018-05-04T17:53:51.813Z,44.04
2018-05-04T17:56:19.502Z,43.78
2018-05-04T17:58:47.177Z,43.99
2018-05-04T18:01:14.829Z,43.95
2018-05-04T18:03:42.458Z,43.30
2018-05-04T18:06:10.070Z,43.37
2018-05-04T18:08:37.714Z,43.76
2018-05-04T18:11:05.357Z,44.02
2018-05-04T18:13:32.998Z,44.40
2018-05-04T18:16:00.701Z,44.95
2018-05-04T18:18:28.335Z,45.64
2018-05-04T18:20:56.045Z,46.01
2018-05-04T18:23:23.678Z,46.36
2018-05-04T18:25:51.314Z,46.58
2018-05-04T18:28:18.971Z,46.60
2018-05-04T18:30:46.705Z,46.61
2018-05-04T18:33:14.348Z,46.49
2018-05-04T18:35:42.052Z,46.70
2018-05-04T18:38:09.725Z,47.19
2018-05-04T18:40:37.326Z,47.62
2018-05-04T18:43:05.014Z,47.57
2018-05-04T18:45:32.634Z,47.92
2018-05-04T18:48:00.270Z,47.66
2018-05-04T18:50:27.866Z,48.00
2018-05-04T18:52:55.473Z,48.56
2018-05-04T18:55:23.101Z,48.95
2018-05-04T18:57:50.704Z,49.69
2018-05-04T19:00:18.398Z,49.73
2018-05-04T19:02:51.660Z,50.12
2018-05-04T19:05:19.268Z,50.12
2018-05-04T19:07:46.909Z,50.10
2018-05-04T19:10:14.576Z,50.35
2018-05-04T19:12:42.273Z,50.78
2018-05-04T19:15:09.924Z,50.88
2018-05-04T19:17:37.649Z,50.84
2018-05-04T19:20:05.327Z,51.21
2018-05-04T19:22:33.086Z,51.20
2018-05-04T19:25:00.746Z,51.45
2018-05-04T19:27:28.337Z,51.36
2018-05-04T19:29:55.976Z,52.26
2018-05-04T19:32:23.630Z,52.22
2018-05-04T19:34:51.239Z,52.60
2018-05-04T19:37:18.850Z,53.21
2018-05-04T19:39:46.530Z,53.74
2018-05-04T19:42:14.222Z,53.42
2018-05-04T19:44:41.888Z,53.78
2018-05-04T19:47:09.509Z,53.52
2018-05-04T19:49:37.131Z,53.36
2018-05-04T19:52:04.733Z,53.47
2018-05-04T19:54:32.382Z,53.00
2018-05-04T19:56:59.989Z,53.70
2018-05-04T19:59:27.623Z,53.98
2018-05-04T20:01:55.257Z,54.55
2018-05-04T20:04:22.846Z,55.18
2018-05-04T20:06:50.433Z,55.18
2018-05-04T20:09:18.069Z,55.07
2018-05-04T20:11:45.672Z,54.86
2018-05-04T20:14:13.289Z,55.44
2018-05-04T20:16:40.961Z,55.12
2018-05-04T20:19:08.593Z,54.82
2018-05-04T20:21:36.189Z,55.12
2018-05-04T20:24:03.850Z,55.72
2018-05-04T20:26:31.442Z,55.45
2018-05-04T20:28:59.029Z,55.63
2018-05-04T20:31:26.689Z,56.26
2018-05-04T20:33:54.285Z,56.17
2018-05-04T20:36:21.986Z,57.05
2018-05-04T20:38:49.754Z,56.98
2018-05-04T20:41:17.418Z,57.13
2018-05-04T20:43:45.025Z,57.42
2018-05-04T20:46:12.718Z,57.09
2018-05-04T20:48:40.461Z,57.14
2018-05-04T20:51:08.096Z,57.14
2018-05-04T20:53:35.790Z,57.43
2018-05-04T20:56:03.470Z,57.76
2018-05-04T20:58:31.158Z,57.95
2018-05-04T21:00:58.906Z,58.13
2018-05-04T21:03:26.582Z,58.46
2018-05-04T21:05:54.253Z,57.31
2018-05-04T21:08:21.918Z,57.19
2018-05-04T21:10:49.550Z,57.31
2018-05-04T21:13:17.206Z,57.90
2018-05-04T21:15:44.875Z,58.20
2018-05-04T21:18:12.534Z,58.21
2018-05-04T21:20:40.130Z,58.08
2018-05-04T21:23:07.859Z,58.48
2018-05-04T21:25:35.642Z,58.56
2018-05-04T21:28:03.292Z,58.54
2018-05-04T21:30:30.994Z,58.78
2018-05-04T21:32:58.725Z,59.04
2018-05-04T21:35:26.379Z,59.05
2018-05-04T21:37:54.173Z,59.92
2018-05-04T21:40:21.806Z,60.58
2018-05-04T21:42:49.472Z,60.80
2018-05-04T21:45:17.209Z,60.10
2018-05-04T21:47:44.914Z,59.52
2018-05-04T21:50:12.594Z,59.52
2018-05-04T21:52:40.333Z,59.31
2018-05-04T21:55:08.035Z,59.70
2018-05-04T21:57:35.738Z,60.06
2018-05-04T22:00:03.446Z,60.25
2018-05-04T22:02:31.114Z,60.06
2018-05-04T22:04:58.755Z,60.08
2018-05-04T22:07:26.466Z,60.31
2018-05-04T22:09:54.147Z,59.94
2018-05-04T22:12:21.779Z,60.23
2018-05-04T22:14:49.505Z,59.88
2018-05-04T22:17:23.126Z,59.54
2018-05-04T22:19:50.837Z,59.83
2018-05-04T22:22:18.520Z,60.39
2018-05-04T22:24:46.216Z,60.74
2018-05-04T22:27:13.908Z,60.54
2018-05-04T22:29:41.590Z,60.03
2018-05-04T22:32:09.245Z,60.00
2018-05-04T22:34:36.986Z,60.41
2018-05-04T22:37:04.646Z,60.57
2018-05-04T22:39:32.369Z,60.41
2018-05-04T22:42:00.034Z,60.32
2018-05-04T22:44:27.710Z,60.01
2018-05-04T22:46:55.368Z,59.95
2018-05-04T22:49:23.103Z,60.14
2018-05-04T22:51:50.745Z,60.52
2018-05-04T22:54:18.457Z,60.36
2018-05-04T22:56:46.117Z,60.29
2018-05-04T22:59:13.844Z,60.66
2018-05-04T23:01:41.517Z,60.48
2018-05-04T23:04:09.209Z,60.73
2018-05-04T23:06:36.933Z,60.77
2018-05-04T23:09:04.674Z,61.17
2018-05-04T23:11:32.330Z,61.22
2018-05-04T23:13:59.949Z,61.15
2018-05-04T23:16:27.589Z,61.36
2018-05-04T23:18:55.211Z,61.30
2018-05-04T23:21:22.830Z,61.45
2018-05-04T23:23:50.489Z,61.33
2018-05-04T23:26:18.141Z,61.41
2018-05-04T23:28:45.869Z,61.79
2018-05-04T23:31:13.549Z,61.79
2018-05-04T23:33:41.198Z,61.46
2018-05-04T23:36:08.855Z,61.59
2018-05-04T23:38:36.526Z,61.39
2018-05-04T23:41:04.137Z,62.11
2018-05-04T23:43:31.759Z,62.36
2018-05-04T23:45:59.378Z,62.74
2018-05-04T23:48:26.982Z,62.28
2018-05-04T23:50:54.647Z,62.47
2018-05-04T23:53:22.349Z,62.25
2018-05-04T23:55:50.017Z,62.29
2018-05-04T23:58:17.689Z,62.88
